74IL weather

Corn Alley 2 Airport
El Paso, Illinois, United States

Public forecast

Using degrees Fahrenheit for public forecast. Weather courtesy of forecast.io.

Closest aviation weather report (METAR) to Corn Alley 2 Airport

Closest report is Central Illinois Regional Airport at Bloomington-Normal, 17.3 nm (32.1 km) SSE. Retrieved 2019/12/08 07:38 UTC (2 minutes ago):

KBMI 080738Z AUTO 18011KT 9SM SCT017 M01/M02 A3011 RMK AO2

Closest aviation forecast (TAF) to Corn Alley 2 Airport

Closest forecast is Central Illinois Regional Airport at Bloomington-Normal, 17.3 nm (32.1 km) SSE. Retrieved 2019/12/08 06:24 UTC (1 hour ago):

TAF KBMI 080523Z 0806/0906 16010KT P6SM FEW250 FM080800 19013KT P6SM OVC018 FM081000 20013KT P6SM OVC012 FM081700 20013G23KT P6SM SCT025 BKN180 FM090000 18011KT P6SM SCT012 BKN018